Ceylon — 9VMU6 — position and weather

sailwx.info

Track history (hours):
 
Tides and Currents Weather Stations Pressure Air Temp Water Temp Dewpoint Dewpoint Depression Visibility Wind Speed Wind Dir Waves Ship Positions

Ceylon

Last reported at 2014-Nov-10 12:32 UTC. Time now 2014-Dec-22 22:43 UTC.
Position S 35°10' W 056°58'.
Warning: this ship's position is 42 days out of date.

Length 180 m; draft 6.5 m.

Type: Tanker. MMSI: 563847000.

Date/timePositionNaut miles runAvg speedWind from/ knotsBaromVisibWave heightAir tempDewpointWater temp
2014-Nov-10 12:32S 35°10' W 056°58'1313.1
2014-Nov-10 11:33S 35°02' W 057°10'1312.8
2014-Nov-10 10:32S 34°52' W 057°21'1212.1
2014-Nov-10 09:33S 34°46' W 057°33'1111.5
2014-Nov-10 08:33S 34°44' W 057°47'2 1.6
2014-Nov-10 07:28S 34°45' W 057°49'0 0.1
2014-Nov-10 06:31S 34°45' W 057°49'0 0.0
2014-Nov-10 05:31S 34°45' W 057°49'0 0.0
2014-Nov-10 04:31S 34°45' W 057°49'0 0.0
2014-Nov-10 03:31S 34°45' W 057°49'0 0.0
2014-Nov-10 02:31S 34°45' W 057°49'0 0.0
2014-Nov-10 01:31S 34°45' W 057°49'0 0.0
2014-Nov-10 00:31S 34°45' W 057°49'0 0.1
2014-Nov-09 23:31S 34°45' W 057°49'0 0.1
2014-Nov-09 22:28S 34°45' W 057°49'0 0.0
2014-Nov-09 21:31S 34°45' W 057°49'4 4.4
2014-Nov-09 20:33S 34°43' W 057°54'1211.9
2014-Nov-09 19:33S 34°38' W 058°07'1110.6
2014-Nov-09 18:33S 34°38' W 058°20'0 0.1
2014-Nov-09 15:22S 34°38' W 058°20'0 0.0
2014-Nov-08 11:28S 34°38' W 058°20'0 0.3
2014-Nov-08 10:33S 34°38' W 058°20'9 9.1
2014-Nov-08 09:33S 34°38' W 058°09'1313.0
2014-Nov-08 08:33S 34°42' W 057°54'2 2.3
2014-Nov-08 07:28S 34°44' W 057°53'0 0.0
2014-Nov-08 06:31S 34°44' W 057°53'0 0.0
2014-Nov-08 05:22S 34°44' W 057°53'0 0.0
2014-Nov-08 04:28S 34°44' W 057°53'0 0.2
2014-Nov-08 03:31S 34°44' W 057°53'0 0.0
2014-Nov-08 02:31S 34°45' W 057°53'0 0.0
2014-Nov-08 01:31S 34°44' W 057°53'0 0.0
2014-Nov-08 00:31S 34°44' W 057°53'0 0.0
2014-Nov-07 23:31S 34°44' W 057°53'0 0.0
2014-Nov-07 22:31S 34°45' W 057°53'0 0.1
2014-Nov-07 21:31S 34°45' W 057°53'0 0.1
2014-Nov-07 20:31S 34°45' W 057°53'0 0.0
2014-Nov-07 19:31S 34°45' W 057°53'0 0.0
2014-Nov-07 18:31S 34°45' W 057°53'0 0.1
2014-Nov-07 17:31S 34°45' W 057°53'0 0.0
2014-Nov-07 16:28S 34°45' W 057°53'0 0.0
2014-Nov-07 15:31S 34°45' W 057°53'0 0.0
2014-Nov-07 14:31S 34°44' W 057°53'0 0.0
2014-Nov-07 13:31S 34°44' W 057°53'0 0.0
2014-Nov-07 12:31S 34°44' W 057°53'0 0.0
2014-Nov-07 11:31S 34°44' W 057°53'0 0.1
2014-Nov-07 10:31S 34°45' W 057°53'0 0.1
2014-Nov-07 09:31S 34°44' W 057°53'0 0.0
2014-Nov-07 08:31S 34°44' W 057°53'0 0.0
2014-Nov-07 07:31S 34°44' W 057°53'0 0.1
2014-Nov-07 06:28S 34°45' W 057°53'0 0.0
2014-Nov-07 05:31S 34°45' W 057°53'0 0.1
2014-Nov-07 04:31S 34°44' W 057°53'0 0.0
2014-Nov-07 03:31S 34°44' W 057°53'0 0.0
2014-Nov-07 02:28S 34°44' W 057°53'0 0.0
2014-Nov-07 01:31S 34°44' W 057°53'0 0.0
2014-Nov-07 00:31S 34°44' W 057°53'0 0.3
2014-Nov-06 23:33S 34°45' W 057°52'1211.5
2014-Nov-06 22:34S 34°45' W 057°38'1312.8
2014-Nov-06 21:33S 34°50' W 057°24'1312.8
2014-Nov-06 20:33S 34°59' W 057°13'1312.8
2014-Nov-06 19:33S 35°08' W 057°02'  
Track history (hours):
 
Tides and Currents Weather Stations Pressure Air Temp Water Temp Dewpoint Dewpoint Depression Visibility Wind Speed Wind Dir Waves Ship Positions

Ceylon

Last reported at 2014-Nov-10 12:32 UTC. Time now 2014-Dec-22 22:43 UTC.
Position S 35°10' W 056°58'.
Warning: this ship's position is 42 days out of date.

Length 180 m; draft 6.5 m.

Type: Tanker. MMSI: 563847000.

Date/timePositionNaut miles runAvg speedWind from/ knotsBaromVisibWave heightAir tempDewpointWater temp
2014-Nov-10 12:32S 35°10' W 056°58'1313.1
2014-Nov-10 11:33S 35°02' W 057°10'1312.8
2014-Nov-10 10:32S 34°52' W 057°21'1212.1
2014-Nov-10 09:33S 34°46' W 057°33'1111.5
2014-Nov-10 08:33S 34°44' W 057°47'2 1.6
2014-Nov-10 07:28S 34°45' W 057°49'0 0.1
2014-Nov-10 06:31S 34°45' W 057°49'0 0.0
2014-Nov-10 05:31S 34°45' W 057°49'0 0.0
2014-Nov-10 04:31S 34°45' W 057°49'0 0.0
2014-Nov-10 03:31S 34°45' W 057°49'0 0.0
2014-Nov-10 02:31S 34°45' W 057°49'0 0.0
2014-Nov-10 01:31S 34°45' W 057°49'0 0.0
2014-Nov-10 00:31S 34°45' W 057°49'0 0.1
2014-Nov-09 23:31S 34°45' W 057°49'0 0.1
2014-Nov-09 22:28S 34°45' W 057°49'0 0.0
2014-Nov-09 21:31S 34°45' W 057°49'4 4.4
2014-Nov-09 20:33S 34°43' W 057°54'1211.9
2014-Nov-09 19:33S 34°38' W 058°07'1110.6
2014-Nov-09 18:33S 34°38' W 058°20'0 0.1
2014-Nov-09 15:22S 34°38' W 058°20'0 0.0
2014-Nov-08 11:28S 34°38' W 058°20'0 0.3
2014-Nov-08 10:33S 34°38' W 058°20'9 9.1
2014-Nov-08 09:33S 34°38' W 058°09'1313.0
2014-Nov-08 08:33S 34°42' W 057°54'2 2.3
2014-Nov-08 07:28S 34°44' W 057°53'0 0.0
2014-Nov-08 06:31S 34°44' W 057°53'0 0.0
2014-Nov-08 05:22S 34°44' W 057°53'0 0.0
2014-Nov-08 04:28S 34°44' W 057°53'0 0.2
2014-Nov-08 03:31S 34°44' W 057°53'0 0.0
2014-Nov-08 02:31S 34°45' W 057°53'0 0.0
2014-Nov-08 01:31S 34°44' W 057°53'0 0.0
2014-Nov-08 00:31S 34°44' W 057°53'0 0.0
2014-Nov-07 23:31S 34°44' W 057°53'0 0.0
2014-Nov-07 22:31S 34°45' W 057°53'0 0.1
2014-Nov-07 21:31S 34°45' W 057°53'0 0.1
2014-Nov-07 20:31S 34°45' W 057°53'0 0.0
2014-Nov-07 19:31S 34°45' W 057°53'0 0.0
2014-Nov-07 18:31S 34°45' W 057°53'0 0.1
2014-Nov-07 17:31S 34°45' W 057°53'0 0.0
2014-Nov-07 16:28S 34°45' W 057°53'0 0.0
2014-Nov-07 15:31S 34°45' W 057°53'0 0.0
2014-Nov-07 14:31S 34°44' W 057°53'0 0.0
2014-Nov-07 13:31S 34°44' W 057°53'0 0.0
2014-Nov-07 12:31S 34°44' W 057°53'0 0.0
2014-Nov-07 11:31S 34°44' W 057°53'0 0.1
2014-Nov-07 10:31S 34°45' W 057°53'0 0.1
2014-Nov-07 09:31S 34°44' W 057°53'0 0.0
2014-Nov-07 08:31S 34°44' W 057°53'0 0.0
2014-Nov-07 07:31S 34°44' W 057°53'0 0.1
2014-Nov-07 06:28S 34°45' W 057°53'0 0.0
2014-Nov-07 05:31S 34°45' W 057°53'0 0.1
2014-Nov-07 04:31S 34°44' W 057°53'0 0.0
2014-Nov-07 03:31S 34°44' W 057°53'0 0.0
2014-Nov-07 02:28S 34°44' W 057°53'0 0.0
2014-Nov-07 01:31S 34°44' W 057°53'0 0.0
2014-Nov-07 00:31S 34°44' W 057°53'0 0.3
2014-Nov-06 23:33S 34°45' W 057°52'1211.5
2014-Nov-06 22:34S 34°45' W 057°38'1312.8
2014-Nov-06 21:33S 34°50' W 057°24'1312.8
2014-Nov-06 20:33S 34°59' W 057°13'1312.8
2014-Nov-06 19:33S 35°08' W 057°02'  

Dump ship's entire track history